This is the latest recevied weather packets stored in our database for station/object GW1572. If no packets are shown the sender has not sent any weather packets the latest 10 day(s).
| Time | Temp. | Humidity | Pressure | Rain* | Wind** | Luminosity | Snow |
|---|---|---|---|---|---|---|---|
| 1778024727 | 21.11° C | 65% | 1001 hPa | 0 mm | - | - | - |
| 1778019674 | 22.78° C | 60% | 1001 hPa | 0 mm | - | - | - |
| 1778018261 | 23.33° C | 51% | 1001 hPa | 0 mm | - | - | - |
| 1778017909 | 23.33° C | 50% | 1001 hPa | 0 mm | - | - | - |
| 1778017181 | 23.89° C | 51% | 1001.3 hPa | 0 mm | - | - | - |
| 1778016462 | 23.89° C | 52% | 1001.3 hPa | 0 mm | - | - | - |
| 1778011780 | 23.89° C | 51% | 1001.6 hPa | 0 mm | - | - | - |
| 1778008172 | 23.89° C | 52% | 1002.7 hPa | 0 mm | - | - | - |
| 1778007816 | 23.89° C | 52% | 1002.7 hPa | 0 mm | - | - | - |
| 1778003485 | 23.33° C | 51% | 1003.3 hPa | 0 mm | - | - | - |
| 1778003125 | 23.33° C | 51% | 1003.3 hPa | 0 mm | - | - | - |
| 1778000979 | 23.89° C | 51% | 1003.3 hPa | 0 mm | - | - | - |
| 1778000608 | 23.89° C | 52% | 1003.3 hPa | 0 mm | - | - | - |
| 1777999512 | 23.89° C | 52% | 1003.3 hPa | 0 mm | - | - | - |
| 1777998439 | 23.89° C | 52% | 1003.3 hPa | 0 mm | - | - | - |
| 1777998108 | 23.89° C | 52% | 1003.3 hPa | 0 mm | - | - | - |
| 1777997735 | 24.44° C | 52% | 1003.3 hPa | 0 mm | - | - | - |
| 1777993411 | 22.78° C | 55% | 1003.3 hPa | 0 mm | - | - | - |
| 1777992708 | 22.22° C | 55% | 1003.3 hPa | 0 mm | - | - | - |
| 1777991952 | 22.22° C | 56% | 1003.3 hPa | 0 mm | - | - | - |
| 1777990542 | 22.22° C | 56% | 1003.3 hPa | 0 mm | - | - | - |
| 1777988373 | 21.11° C | 57% | 1003.3 hPa | 0 mm | - | - | - |
| 1777987651 | 20.56° C | 61% | 1003.7 hPa | 0 mm | - | - | - |
| 1777981165 | 16.67° C | 77% | 1003.3 hPa | 0 mm | - | - | - |
| 1777980095 | 16.67° C | 76% | 1003 hPa | 0 mm | - | - | - |
* Rain since midnight (hover to see other rain measurements)
** Current wind speed in m/s (hover to see current wind gust speed)